createdAt,value
2022-12-29T00:00:10.038Z,3.03
2022-12-29T00:02:49.236Z,2.75
2022-12-29T00:05:22.747Z,3.08
2022-12-29T00:07:56.408Z,2.30
2022-12-29T00:10:30.054Z,2.63
2022-12-29T00:13:23.278Z,2.85
2022-12-29T00:15:58.137Z,2.80
2022-12-29T00:18:31.774Z,2.47
2022-12-29T00:21:22.152Z,2.97
2022-12-29T00:24:13.347Z,2.78
2022-12-29T00:27:04.859Z,2.67
2022-12-29T00:29:55.683Z,3.28
2022-12-29T00:32:47.956Z,2.20
2022-12-29T00:35:27.458Z,2.42
2022-12-29T00:38:21.753Z,2.15
2022-12-29T00:41:13.847Z,2.20
2022-12-29T00:44:05.239Z,2.20
2022-12-29T00:46:39.604Z,2.83
2022-12-29T00:49:34.345Z,2.47
2022-12-29T00:52:10.256Z,2.10
2022-12-29T00:54:45.899Z,2.08
2022-12-29T00:57:19.571Z,2.55
2022-12-29T00:59:53.011Z,1.80
2022-12-29T01:02:26.595Z,1.70
2022-12-29T01:05:01.624Z,1.65
2022-12-29T01:07:35.080Z,1.92
2022-12-29T01:10:11.709Z,1.88
2022-12-29T01:12:46.431Z,2.88
2022-12-29T01:15:20.339Z,2.13
2022-12-29T01:17:55.488Z,2.00
2022-12-29T01:20:30.352Z,1.95
2022-12-29T01:23:03.982Z,1.73
2022-12-29T01:25:37.521Z,1.48
2022-12-29T01:28:11.156Z,1.63
2022-12-29T01:30:45.365Z,1.20
2022-12-29T01:33:20.418Z,2.05
2022-12-29T01:35:55.285Z,1.58
2022-12-29T01:38:28.828Z,1.75
2022-12-29T01:41:02.861Z,1.38
2022-12-29T01:43:44.684Z,2.13
2022-12-29T01:46:26.125Z,1.95
2022-12-29T01:49:05.348Z,1.58
2022-12-29T01:51:44.700Z,1.73
2022-12-29T01:54:24.446Z,1.85
2022-12-29T01:57:00.798Z,1.58
2022-12-29T01:59:40.376Z,1.52
2022-12-29T02:02:14.589Z,1.60
2022-12-29T02:04:49.281Z,1.33
2022-12-29T02:07:28.438Z,1.63
2022-12-29T02:10:04.207Z,1.50
2022-12-29T02:12:38.130Z,2.30
2022-12-29T02:15:12.327Z,1.67
2022-12-29T02:18:02.581Z,2.08
2022-12-29T02:21:09.717Z,1.58
2022-12-29T02:24:09.347Z,1.85
2022-12-29T02:27:09.366Z,1.77
2022-12-29T02:30:04.666Z,1.55
2022-12-29T02:32:49.495Z,1.80
2022-12-29T02:35:33.186Z,1.70
2022-12-29T02:38:17.577Z,1.40
2022-12-29T02:40:56.228Z,1.80
2022-12-29T02:43:37.767Z,1.75
2022-12-29T02:46:20.016Z,2.20
2022-12-29T02:49:03.569Z,1.58
2022-12-29T02:51:41.329Z,1.98
2022-12-29T02:54:32.451Z,1.92
2022-12-29T02:57:07.633Z,1.50
2022-12-29T02:59:41.886Z,1.92
2022-12-29T03:02:37.548Z,1.77
2022-12-29T03:05:30.146Z,2.28
2022-12-29T03:08:08.825Z,1.70
2022-12-29T03:10:50.546Z,2.13
2022-12-29T03:13:47.748Z,2.28
2022-12-29T03:16:27.001Z,2.95
2022-12-29T03:19:06.823Z,3.65
2022-12-29T03:22:03.831Z,2.15
2022-12-29T03:24:48.032Z,3.20
2022-12-29T03:27:25.086Z,3.17
2022-12-29T03:30:05.095Z,2.58
2022-12-29T03:32:42.269Z,2.17
2022-12-29T03:35:19.077Z,2.17
2022-12-29T03:38:01.200Z,2.95
2022-12-29T03:40:36.565Z,5.18
2022-12-29T03:43:10.778Z,3.63
2022-12-29T03:45:44.461Z,4.32
2022-12-29T03:48:18.251Z,3.72
2022-12-29T03:50:53.125Z,4.05
2022-12-29T03:53:27.998Z,4.47
2022-12-29T03:56:01.977Z,4.18
2022-12-29T03:58:36.405Z,4.43
2022-12-29T04:01:18.942Z,4.32
2022-12-29T04:03:52.927Z,4.68
2022-12-29T04:06:27.415Z,4.78
2022-12-29T04:09:08.650Z,3.97
2022-12-29T04:11:47.372Z,4.35
2022-12-29T04:14:21.243Z,2.97
2022-12-29T04:16:54.746Z,3.08
2022-12-29T04:19:28.692Z,3.10
2022-12-29T04:22:02.353Z,3.90
2022-12-29T04:24:38.043Z,2.47
2022-12-29T04:27:12.170Z,2.08
2022-12-29T04:29:59.809Z,2.00
2022-12-29T04:32:53.100Z,2.40
2022-12-29T04:35:26.651Z,2.25
2022-12-29T04:38:00.924Z,2.45
2022-12-29T04:40:35.840Z,2.40
2022-12-29T04:43:09.718Z,2.25
2022-12-29T04:46:01.968Z,2.17
2022-12-29T04:48:42.319Z,2.03
2022-12-29T04:51:39.237Z,2.22
2022-12-29T04:54:15.462Z,1.75
2022-12-29T04:56:52.992Z,1.98
2022-12-29T04:59:26.496Z,2.42
2022-12-29T05:02:03.835Z,2.05
2022-12-29T05:04:38.028Z,2.60
2022-12-29T05:07:11.660Z,2.03
2022-12-29T05:09:45.132Z,2.35
2022-12-29T05:12:20.029Z,2.63
2022-12-29T05:15:03.288Z,2.45
2022-12-29T05:17:38.079Z,1.60
2022-12-29T05:20:13.450Z,2.22
2022-12-29T05:22:47.309Z,1.90
2022-12-29T05:25:21.676Z,2.47
2022-12-29T05:28:04.230Z,2.33
2022-12-29T05:30:59.200Z,2.80
2022-12-29T05:33:33.382Z,1.77
2022-12-29T05:36:08.021Z,2.78
2022-12-29T05:38:43.117Z,2.53
2022-12-29T05:41:17.325Z,2.63
2022-12-29T05:43:59.054Z,2.25
2022-12-29T05:46:35.614Z,2.28
2022-12-29T05:49:17.840Z,2.22
2022-12-29T05:52:15.133Z,2.38
2022-12-29T05:54:48.800Z,2.75
2022-12-29T05:57:25.897Z,2.35
2022-12-29T06:00:12.579Z,2.33
2022-12-29T06:02:48.699Z,2.97
2022-12-29T06:05:23.943Z,2.13
2022-12-29T06:07:57.654Z,2.20
2022-12-29T06:10:32.088Z,3.10
2022-12-29T06:13:10.101Z,2.10
2022-12-29T06:15:50.709Z,2.42
2022-12-29T06:18:25.359Z,2.45
2022-12-29T06:21:02.379Z,2.38
2022-12-29T06:23:35.983Z,2.70
2022-12-29T06:26:10.860Z,2.80
2022-12-29T06:28:45.185Z,2.53
2022-12-29T06:31:20.082Z,2.35
2022-12-29T06:33:55.148Z,2.00
2022-12-29T06:36:28.639Z,1.88
2022-12-29T06:39:02.201Z,2.10
2022-12-29T06:41:35.807Z,2.58
2022-12-29T06:44:37.078Z,3.33
2022-12-29T06:47:15.848Z,2.50
2022-12-29T06:49:49.340Z,2.25
2022-12-29T06:52:24.853Z,2.25
2022-12-29T06:54:58.332Z,1.98
2022-12-29T06:57:31.924Z,3.13
2022-12-29T07:00:06.031Z,2.97
2022-12-29T07:02:40.965Z,2.30
2022-12-29T07:05:14.809Z,3.58
2022-12-29T07:07:48.538Z,4.65
2022-12-29T07:10:22.373Z,8.77
2022-12-29T07:12:56.023Z,7.90
2022-12-29T07:15:29.475Z,6.05
2022-12-29T07:18:04.768Z,5.32
2022-12-29T07:20:38.243Z,4.20
2022-12-29T07:23:12.008Z,6.65
2022-12-29T07:25:45.466Z,3.28
2022-12-29T07:28:18.917Z,3.15
2022-12-29T07:30:52.403Z,2.17
2022-12-29T07:33:28.011Z,3.30
2022-12-29T07:36:02.648Z,2.88
2022-12-29T07:38:36.166Z,3.40
2022-12-29T07:41:09.882Z,3.13
2022-12-29T07:43:43.428Z,2.75
2022-12-29T07:46:55.407Z,2.92
2022-12-29T07:49:31.925Z,3.05
2022-12-29T07:52:05.763Z,2.63
2022-12-29T07:54:39.229Z,3.30
2022-12-29T07:57:12.689Z,3.17
2022-12-29T07:59:46.123Z,3.33
2022-12-29T08:02:19.749Z,2.85
2022-12-29T08:04:54.841Z,2.95
2022-12-29T08:07:28.410Z,3.13
2022-12-29T08:10:02.552Z,3.05
2022-12-29T08:12:36.036Z,3.47
2022-12-29T08:15:11.181Z,3.03
2022-12-29T08:17:44.772Z,5.03
2022-12-29T08:20:19.951Z,4.85
2022-12-29T08:22:53.748Z,3.97
2022-12-29T08:25:27.427Z,7.90
2022-12-29T08:28:00.923Z,8.07
2022-12-29T08:30:34.611Z,7.25
2022-12-29T08:33:08.062Z,8.07
2022-12-29T08:35:43.131Z,8.73
2022-12-29T08:38:16.922Z,11.10
2022-12-29T08:40:50.566Z,7.80
2022-12-29T08:43:24.240Z,8.15
2022-12-29T08:45:59.246Z,8.88
2022-12-29T08:48:32.984Z,8.65
2022-12-29T08:51:08.852Z,8.65
2022-12-29T08:53:42.389Z,10.23
2022-12-29T08:56:15.863Z,8.60
2022-12-29T08:58:55.928Z,8.57
2022-12-29T09:01:31.625Z,10.95
2022-12-29T09:04:21.007Z,10.93
2022-12-29T09:06:56.255Z,8.65
2022-12-29T09:09:29.721Z,9.90
2022-12-29T09:12:03.313Z,14.98
2022-12-29T09:14:39.624Z,7.70
2022-12-29T09:17:31.163Z,7.13
2022-12-29T09:20:05.159Z,12.50
2022-12-29T09:22:40.265Z,6.85
2022-12-29T09:25:14.213Z,7.97
2022-12-29T09:27:48.891Z,6.30
2022-12-29T09:30:24.415Z,4.80
2022-12-29T09:32:57.933Z,6.85
2022-12-29T09:35:31.590Z,5.55
2022-12-29T09:38:06.523Z,5.22
2022-12-29T09:40:41.473Z,7.47
2022-12-29T09:43:29.394Z,7.65
2022-12-29T09:46:15.976Z,6.90
2022-12-29T09:48:54.835Z,5.68
2022-12-29T09:51:29.055Z,5.68
2022-12-29T09:54:23.244Z,4.70
2022-12-29T09:56:58.268Z,5.43
2022-12-29T09:59:41.603Z,3.92
2022-12-29T10:02:31.279Z,3.70
2022-12-29T10:05:05.278Z,3.15
2022-12-29T10:07:46.839Z,6.78
2022-12-29T10:10:34.284Z,5.32
2022-12-29T10:13:28.293Z,4.35
2022-12-29T10:16:09.351Z,4.20
2022-12-29T10:19:13.011Z,3.78
2022-12-29T10:22:00.569Z,11.32
2022-12-29T10:24:37.071Z,4.88
2022-12-29T10:27:18.949Z,10.07
2022-12-29T10:29:57.149Z,6.10
2022-12-29T10:32:36.714Z,5.60
2022-12-29T10:35:14.920Z,12.27
2022-12-29T10:37:54.537Z,5.97
2022-12-29T10:40:33.998Z,4.15
2022-12-29T10:43:24.221Z,4.43
2022-12-29T10:46:01.358Z,4.07
2022-12-29T10:48:36.693Z,4.20
2022-12-29T10:51:11.025Z,3.85
2022-12-29T10:53:48.367Z,3.58
2022-12-29T10:56:31.648Z,4.70
2022-12-29T10:59:17.326Z,4.70
2022-12-29T11:01:58.868Z,5.30
2022-12-29T11:04:45.881Z,4.68
2022-12-29T11:07:27.097Z,3.17
2022-12-29T11:10:19.945Z,4.93
2022-12-29T11:13:03.963Z,4.38
2022-12-29T11:15:44.183Z,3.80
2022-12-29T11:18:23.700Z,3.55
2022-12-29T11:21:00.391Z,4.60
2022-12-29T11:23:36.765Z,4.13
2022-12-29T11:26:25.367Z,4.55
2022-12-29T11:29:29.396Z,4.00
2022-12-29T11:32:13.923Z,5.13
2022-12-29T11:34:48.040Z,4.72
2022-12-29T11:37:30.916Z,4.35
2022-12-29T11:40:09.284Z,3.50
2022-12-29T11:42:49.208Z,4.97
2022-12-29T11:45:25.528Z,4.90
2022-12-29T11:48:03.134Z,3.80
2022-12-29T11:50:41.099Z,6.22
2022-12-29T11:53:22.280Z,3.97
2022-12-29T11:55:59.126Z,4.03
2022-12-29T11:58:33.921Z,3.47
2022-12-29T12:01:13.440Z,3.97
2022-12-29T12:03:55.259Z,4.60
2022-12-29T12:06:31.647Z,4.37
2022-12-29T12:09:12.638Z,4.05
2022-12-29T12:11:47.136Z,4.20
2022-12-29T12:14:25.947Z,4.13
2022-12-29T12:17:36.844Z,4.05
2022-12-29T12:20:23.014Z,3.75
2022-12-29T12:23:09.977Z,4.40
2022-12-29T12:25:50.539Z,3.63
2022-12-29T12:28:36.461Z,4.45
2022-12-29T12:31:21.106Z,6.57
2022-12-29T12:34:00.114Z,4.60
2022-12-29T12:37:00.409Z,4.43
2022-12-29T12:39:44.799Z,4.10
2022-12-29T12:42:33.788Z,3.53
2022-12-29T12:45:30.617Z,4.10
2022-12-29T12:48:16.771Z,4.47
2022-12-29T12:50:59.290Z,3.60
2022-12-29T12:53:57.607Z,4.57
2022-12-29T12:56:58.169Z,4.57
2022-12-29T12:59:44.902Z,3.70
2022-12-29T13:02:32.337Z,3.95
2022-12-29T13:05:49.391Z,4.05
2022-12-29T13:09:02.619Z,4.45
2022-12-29T13:11:48.397Z,3.58
2022-12-29T13:14:35.880Z,4.22
2022-12-29T13:17:16.519Z,4.35
2022-12-29T13:19:57.574Z,5.15
2022-12-29T13:22:37.383Z,4.65
2022-12-29T13:25:26.033Z,4.72
2022-12-29T13:28:06.855Z,3.72
2022-12-29T13:30:46.837Z,4.10
2022-12-29T13:33:26.570Z,4.20
2022-12-29T13:36:06.039Z,3.95
2022-12-29T13:38:45.143Z,4.43
2022-12-29T13:41:26.762Z,4.32
2022-12-29T13:44:02.908Z,4.47
2022-12-29T13:46:40.807Z,4.75
2022-12-29T13:49:17.780Z,4.15
2022-12-29T13:51:54.190Z,5.30
2022-12-29T13:54:36.839Z,5.38
2022-12-29T13:59:56.921Z,4.18
2022-12-29T14:02:40.958Z,4.57
2022-12-29T14:05:32.161Z,4.35
2022-12-29T14:08:07.531Z,4.60
2022-12-29T14:10:49.396Z,4.28
2022-12-29T14:13:26.079Z,5.33
2022-12-29T14:16:01.055Z,5.20
2022-12-29T14:18:36.285Z,4.43
2022-12-29T14:21:19.536Z,4.85
2022-12-29T14:23:54.964Z,4.32
2022-12-29T14:26:38.253Z,3.95
2022-12-29T14:29:46.492Z,4.47
2022-12-29T14:32:40.302Z,4.82
2022-12-29T14:35:42.553Z,5.07
2022-12-29T14:38:19.749Z,11.97
2022-12-29T14:40:54.210Z,11.52
2022-12-29T14:43:29.273Z,10.73
2022-12-29T14:46:04.831Z,10.20
2022-12-29T14:48:45.563Z,9.52
2022-12-29T14:51:22.067Z,10.85
2022-12-29T14:53:55.573Z,9.05
2022-12-29T14:56:32.820Z,9.55
2022-12-29T14:59:12.697Z,7.70
2022-12-29T15:01:51.894Z,10.10
2022-12-29T15:04:29.219Z,10.77
2022-12-29T15:07:04.559Z,12.43
2022-12-29T15:09:41.309Z,11.63
2022-12-29T15:12:22.253Z,11.93
2022-12-29T15:14:57.564Z,10.75
2022-12-29T15:17:34.058Z,11.80
2022-12-29T15:20:22.976Z,13.02
2022-12-29T15:22:59.227Z,11.90
2022-12-29T15:25:33.973Z,14.52
2022-12-29T15:28:09.330Z,11.90
2022-12-29T15:30:53.290Z,12.23
2022-12-29T15:33:30.351Z,14.57
2022-12-29T15:36:07.045Z,15.05
2022-12-29T15:38:41.119Z,20.58
2022-12-29T15:41:28.231Z,29.17
2022-12-29T15:44:13.081Z,14.57
2022-12-29T15:46:46.614Z,14.52
2022-12-29T15:49:28.836Z,27.20
2022-12-29T15:52:09.767Z,15.13
2022-12-29T15:54:45.205Z,12.70
2022-12-29T15:57:26.132Z,9.45
2022-12-29T16:00:00.703Z,10.50
2022-12-29T16:02:36.186Z,15.38
2022-12-29T16:05:18.863Z,12.18
2022-12-29T16:07:57.237Z,15.23
2022-12-29T16:10:37.958Z,13.80
2022-12-29T16:13:20.260Z,12.38
2022-12-29T16:15:57.533Z,11.73
2022-12-29T16:18:35.157Z,11.93
2022-12-29T16:21:21.615Z,12.55
2022-12-29T16:23:57.448Z,12.90
2022-12-29T16:26:31.235Z,11.23
2022-12-29T16:29:08.664Z,12.88
2022-12-29T16:31:52.999Z,11.35
2022-12-29T16:34:30.794Z,13.82
2022-12-29T16:37:06.915Z,13.35
2022-12-29T16:39:40.960Z,13.00
2022-12-29T16:42:40.190Z,16.27
2022-12-29T16:45:52.470Z,11.90
2022-12-29T16:48:28.397Z,12.47
2022-12-29T16:51:07.306Z,13.77
2022-12-29T16:53:44.053Z,15.65
2022-12-29T16:56:21.477Z,14.07
2022-12-29T16:59:01.472Z,12.60
2022-12-29T17:01:38.539Z,14.02
2022-12-29T17:04:14.053Z,13.55
2022-12-29T17:06:47.695Z,13.73
2022-12-29T17:09:25.168Z,11.40
2022-12-29T17:12:08.679Z,13.20
2022-12-29T17:14:46.906Z,23.98
2022-12-29T17:17:24.155Z,23.42
2022-12-29T17:20:03.973Z,15.32
2022-12-29T17:22:37.550Z,13.13
2022-12-29T17:25:16.050Z,18.80
2022-12-29T17:27:53.961Z,16.02
2022-12-29T17:30:33.437Z,15.70
2022-12-29T17:33:11.584Z,17.50
2022-12-29T17:35:46.668Z,20.77
2022-12-29T17:38:24.855Z,32.63
2022-12-29T17:41:01.533Z,28.50
2022-12-29T17:43:37.211Z,16.40
2022-12-29T17:46:10.838Z,14.85
2022-12-29T17:48:48.166Z,18.13
2022-12-29T17:51:26.797Z,15.60
2022-12-29T17:54:00.525Z,14.77
2022-12-29T17:56:35.371Z,16.35
2022-12-29T17:59:14.136Z,16.80
2022-12-29T18:01:49.273Z,16.02
2022-12-29T18:04:22.867Z,16.80
2022-12-29T18:06:56.368Z,16.50
2022-12-29T18:09:29.899Z,17.33
2022-12-29T18:12:05.600Z,13.40
2022-12-29T18:14:39.147Z,14.05
2022-12-29T18:17:14.072Z,14.40
2022-12-29T18:19:47.613Z,15.93
2022-12-29T18:22:21.147Z,16.67
2022-12-29T18:24:54.627Z,13.57
2022-12-29T18:27:29.832Z,15.95
2022-12-29T18:30:03.362Z,14.82
2022-12-29T18:32:37.112Z,14.02
2022-12-29T18:35:19.111Z,15.48
2022-12-29T18:37:52.636Z,16.60
2022-12-29T18:40:26.108Z,15.32
2022-12-29T18:43:01.031Z,18.23
2022-12-29T18:45:35.034Z,18.83
2022-12-29T18:48:08.951Z,13.15
2022-12-29T18:50:42.527Z,12.10
2022-12-29T18:53:17.966Z,11.23
2022-12-29T18:55:51.481Z,15.27
2022-12-29T18:58:32.236Z,17.85
2022-12-29T19:03:42.052Z,17.38
2022-12-29T19:06:15.566Z,20.23
2022-12-29T19:08:49.084Z,17.70
2022-12-29T19:11:24.295Z,22.42
2022-12-29T19:13:59.225Z,47.20
2022-12-29T19:16:32.856Z,28.48
2022-12-29T19:19:10.065Z,23.27
2022-12-29T19:21:43.798Z,24.00
2022-12-29T19:24:17.365Z,21.17
2022-12-29T19:26:50.910Z,20.95
2022-12-29T19:29:25.836Z,42.90
2022-12-29T19:31:59.401Z,37.13
2022-12-29T19:34:32.985Z,26.88
2022-12-29T19:37:06.783Z,35.22
2022-12-29T19:39:40.322Z,28.20
2022-12-29T19:42:13.784Z,30.88
2022-12-29T19:44:49.894Z,31.38
2022-12-29T19:47:28.411Z,31.48
2022-12-29T19:50:06.544Z,32.50
2022-12-29T19:52:40.065Z,29.40
2022-12-29T19:55:16.446Z,28.17
2022-12-29T19:57:50.788Z,24.70
2022-12-29T20:00:25.941Z,24.67
2022-12-29T20:02:59.497Z,22.63
2022-12-29T20:05:33.071Z,22.02
2022-12-29T20:08:06.856Z,17.95
2022-12-29T20:10:40.356Z,17.23
2022-12-29T20:13:13.877Z,19.20
2022-12-29T20:15:48.736Z,18.02
2022-12-29T20:18:28.619Z,16.00
2022-12-29T20:21:03.837Z,18.45
2022-12-29T20:23:40.553Z,17.15
2022-12-29T20:26:19.031Z,17.38
2022-12-29T20:28:53.125Z,20.45
2022-12-29T20:31:30.107Z,19.55
2022-12-29T20:34:04.220Z,22.27
2022-12-29T20:36:41.260Z,22.73
2022-12-29T20:39:17.759Z,20.50
2022-12-29T20:41:51.306Z,23.50
2022-12-29T20:44:25.954Z,22.23
2022-12-29T20:47:01.743Z,21.80
2022-12-29T20:49:36.056Z,21.38
2022-12-29T20:52:09.540Z,20.13
2022-12-29T20:54:43.029Z,17.52
2022-12-29T20:57:16.556Z,18.55
2022-12-29T20:59:50.193Z,21.80
2022-12-29T21:02:25.304Z,18.75
2022-12-29T21:05:23.255Z,18.48
2022-12-29T21:07:53.042Z,25.48
2022-12-29T21:10:26.660Z,25.73
2022-12-29T21:13:01.617Z,29.02
2022-12-29T21:15:35.178Z,31.83
2022-12-29T21:18:10.164Z,25.58
2022-12-29T21:20:43.677Z,24.10
2022-12-29T21:23:17.173Z,22.73
2022-12-29T21:25:50.723Z,25.80
2022-12-29T21:28:25.198Z,22.13
2022-12-29T21:31:09.097Z,22.05
2022-12-29T21:33:44.220Z,23.50
2022-12-29T21:36:17.699Z,29.63
2022-12-29T21:38:51.591Z,29.98
2022-12-29T21:41:25.599Z,34.03
2022-12-29T21:44:18.010Z,30.42
2022-12-29T21:46:51.612Z,27.70
2022-12-29T21:49:28.060Z,42.55
2022-12-29T21:52:01.696Z,43.30
2022-12-29T21:54:53.044Z,34.78
2022-12-29T21:57:44.093Z,30.48
2022-12-29T22:00:47.353Z,31.88
2022-12-29T22:03:38.418Z,28.92
2022-12-29T22:06:30.665Z,28.48
2022-12-29T22:09:21.827Z,27.63
2022-12-29T22:12:12.671Z,27.13
2022-12-29T22:14:46.129Z,25.05
2022-12-29T22:17:21.209Z,27.42
2022-12-29T22:19:57.440Z,27.48
2022-12-29T22:22:32.287Z,27.55
2022-12-29T22:25:06.540Z,25.42
2022-12-29T22:27:40.024Z,28.40
2022-12-29T22:30:15.037Z,23.58
2022-12-29T22:32:48.761Z,23.63
2022-12-29T22:35:22.240Z,24.63
2022-12-29T22:37:57.434Z,25.67
2022-12-29T22:40:31.041Z,29.25
2022-12-29T22:43:11.123Z,37.75
2022-12-29T22:45:46.460Z,35.00
2022-12-29T22:48:20.100Z,32.17
2022-12-29T22:50:56.012Z,31.27
2022-12-29T22:53:31.276Z,28.02
2022-12-29T22:56:06.858Z,23.48
2022-12-29T22:58:41.888Z,23.02
2022-12-29T23:01:17.047Z,26.88
2022-12-29T23:03:50.884Z,27.92
2022-12-29T23:06:24.354Z,28.98
2022-12-29T23:09:01.236Z,32.85
2022-12-29T23:11:35.034Z,27.77
2022-12-29T23:14:08.756Z,31.00
2022-12-29T23:16:42.228Z,27.77
2022-12-29T23:19:16.810Z,26.77
2022-12-29T23:21:50.403Z,27.13
2022-12-29T23:24:25.522Z,27.50
2022-12-29T23:26:59.178Z,26.25
2022-12-29T23:29:32.623Z,27.33
2022-12-29T23:32:06.249Z,25.65
2022-12-29T23:34:39.910Z,25.70
2022-12-29T23:37:13.376Z,26.17
2022-12-29T23:39:48.422Z,25.65
2022-12-29T23:42:22.071Z,24.23
2022-12-29T23:44:55.503Z,28.92
2022-12-29T23:47:29.345Z,28.73
2022-12-29T23:50:02.849Z,28.83
2022-12-29T23:52:36.695Z,27.35
2022-12-29T23:55:12.284Z,28.45
2022-12-29T23:57:45.813Z,28.48
